»·PEaware :: N112TB L52-L88

N112TB :: L52-L88

FLIGHT INFORMATION

Flight Status: Arrived
Operator: Privately registered:
United States
More flights under this callsign
Pilot: Paul D. (19850)
Aircraft: CESSNA 172 SKYHAWK
(C172)
More flights by this aircraft type
Origin: L52 Oceano Co
United States
Destination: L88 New Cuyama
United States
More flights between these airports :: More routes between these airports
Route:
File this flight plan on PilotEdge
Remarks:
Altitude:
(Current/Filed)
2,500ft
Speed:
(Current/Filed)
100kts
Departed: 14-Oct-19 11:39 AM
Arrived: 14-Oct-19 12:10 PM
Distance/Time
Traveled:
8nm/0:31
Distance/Time
To Go:
Arrived

Flight Plot

Page will automatically refresh every two minutes.


Map Options




Map Legend


Flown Route
Filed Route
Departure Airport
Arrival Airport
Navaid (VOR, NDB)
Fix

Horizontal Profiles

Position Reports

Time Latitude Longitude Heading Altitude Ground
Speed
14-Oct-19 11:31 35.103452 -120.624821 213 18ft 0kts
14-Oct-19 11:32 35.103452 -120.624821 213 18ft 0kts
14-Oct-19 11:33 35.103452 -120.624821 213 18ft 0kts
14-Oct-19 11:34 35.103449 -120.624823 213 18ft 0kts
14-Oct-19 11:35 35.103449 -120.624823 213 18ft 0kts
14-Oct-19 11:36 35.102719 -120.625534 122 18ft 11kts
14-Oct-19 11:37 35.099646 -120.619764 139 18ft 10kts
14-Oct-19 11:38 35.100856 -120.621082 303 18ft 55kts
14-Oct-19 11:39 35.099026 -120.641031 197 902ft 89kts
14-Oct-19 11:40 35.078135 -120.642535 118 1941ft 88kts
14-Oct-19 11:41 35.068150 -120.616179 106 2939ft 85kts
14-Oct-19 11:42 35.074856 -120.588933 63 3814ft 88kts
14-Oct-19 11:43 35.086091 -120.560675 57 4590ft 93kts
14-Oct-19 11:44 35.097508 -120.533062 59 5462ft 92kts
14-Oct-19 11:45 35.112087 -120.507301 45 6261ft 96kts
14-Oct-19 11:46 35.121802 -120.478983 101 6864ft 110kts
14-Oct-19 11:47 35.113476 -120.444404 103 7406ft 110kts
14-Oct-19 11:48 35.104339 -120.406245 102 7511ft 120kts
14-Oct-19 11:49 35.096835 -120.366434 100 7443ft 121kts
14-Oct-19 11:50 35.089479 -120.326977 100 7382ft 122kts
14-Oct-19 11:51 35.083826 -120.286427 96 7373ft 121kts
14-Oct-19 11:52 35.079316 -120.245532 96 7365ft 122kts
14-Oct-19 11:53 35.073916 -120.204709 96 7544ft 120kts
14-Oct-19 11:54 35.067509 -120.163747 99 7569ft 125kts
14-Oct-19 11:55 35.062742 -120.121332 94 7559ft 124kts
14-Oct-19 11:56 35.059436 -120.078590 100 7515ft 127kts
14-Oct-19 11:57 35.049630 -120.037568 108 7566ft 124kts
14-Oct-19 11:58 35.035294 -119.997840 112 7499ft 128kts
14-Oct-19 11:59 35.021059 -119.958249 109 7514ft 126kts
14-Oct-19 12:00 35.009995 -119.917849 108 7527ft 126kts
14-Oct-19 12:01 34.997484 -119.877966 109 7526ft 127kts
14-Oct-19 12:02 34.986268 -119.838137 99 7521ft 120kts
14-Oct-19 12:03 34.981573 -119.797433 95 6842ft 118kts
14-Oct-19 12:04 34.971391 -119.756453 113 5240ft 120kts
14-Oct-19 12:05 34.957288 -119.719190 104 4227ft 119kts
14-Oct-19 12:06 34.950814 -119.682894 109 4137ft 106kts
14-Oct-19 12:07 34.939746 -119.653013 159 4218ft 86kts
14-Oct-19 12:08 34.932285 -119.667908 322 2861ft 95kts
14-Oct-19 12:09 34.940311 -119.686533 300 2172ft 27kts
14-Oct-19 12:10 34.942748 -119.691209 20 2155ft 0kts
14-Oct-19 12:11 34.943665 -119.691163 124 2153ft 0kts
14-Oct-19 12:13 35.234426 -120.632963 214 216ft 0kts
14-Oct-19 12:14 35.234426 -120.632963 214 216ft 0kts
14-Oct-19 12:15 35.234426 -120.632963 214 216ft 0kts
14-Oct-19 12:16 35.234426 -120.632963 214 216ft 0kts
14-Oct-19 12:17 35.234426 -120.632963 214 216ft 0kts
14-Oct-19 12:18 35.234426 -120.632963 214 216ft 0kts
14-Oct-19 12:19 35.234426 -120.632963 214 216ft 0kts
14-Oct-19 12:20 35.234426 -120.632963 214 216ft 0kts
14-Oct-19 12:21 35.234426 -120.632963 214 216ft 0kts
14-Oct-19 12:22 35.234426 -120.632963 214 216ft 0kts
14-Oct-19 12:23 35.234426 -120.632963 214 216ft 0kts

Navigation Log

Ident Type
Flight plan parsing failed, navigation log unavailable